地図

経路データ

SID SEASON NUMBER BASIN SUBBASIN NAME ISO_TIME NATURE LAT LON WMO_WIND WMO_PRES WMO_AGENCY TRACK_TYPE DIST2LAND LANDFALL IFLAG USA_AGENCY USA_ATCF_ID USA_LAT USA_LON USA_RECORD USA_STATUS USA_WIND USA_PRES USA_SSHS USA_R34_NE USA_R34_SE USA_R34_SW USA_R34_NW USA_R50_NE USA_R50_SE USA_R50_SW USA_R50_NW USA_R64_NE USA_R64_SE USA_R64_SW USA_R64_NW USA_POCI USA_ROCI USA_RMW USA_EYE TOKYO_LAT TOKYO_LON TOKYO_GRADE TOKYO_WIND TOKYO_PRES TOKYO_R50_DIR TOKYO_R50_LONG TOKYO_R50_SHORT TOKYO_R30_DIR TOKYO_R30_LONG TOKYO_R30_SHORT TOKYO_LAND CMA_LAT CMA_LON CMA_CAT CMA_WIND CMA_PRES HKO_LAT HKO_LON HKO_CAT HKO_WIND HKO_PRES NEWDELHI_LAT NEWDELHI_LON NEWDELHI_GRADE NEWDELHI_WIND NEWDELHI_PRES NEWDELHI_CI NEWDELHI_DP NEWDELHI_POCI REUNION_LAT REUNION_LON REUNION_TYPE REUNION_WIND REUNION_PRES REUNION_TNUM REUNION_CI REUNION_RMW REUNION_R34_NE REUNION_R34_SE REUNION_R34_SW REUNION_R34_NW REUNION_R50_NE REUNION_R50_SE REUNION_R50_SW REUNION_R50_NW REUNION_R64_NE REUNION_R64_SE REUNION_R64_SW REUNION_R64_NW BOM_LAT BOM_LON BOM_TYPE BOM_WIND BOM_PRES BOM_TNUM BOM_CI BOM_RMW BOM_R34_NE BOM_R34_SE BOM_R34_SW BOM_R34_NW BOM_R50_NE BOM_R50_SE BOM_R50_SW BOM_R50_NW BOM_R64_NE BOM_R64_SE BOM_R64_SW BOM_R64_NW BOM_ROCI BOM_POCI BOM_EYE BOM_POS_METHOD BOM_PRES_METHOD NADI_LAT NADI_LON NADI_CAT NADI_WIND NADI_PRES WELLINGTON_LAT WELLINGTON_LON WELLINGTON_WIND WELLINGTON_PRES DS824_LAT DS824_LON DS824_STAGE DS824_WIND DS824_PRES TD9636_LAT TD9636_LON TD9636_STAGE TD9636_WIND TD9636_PRES TD9635_LAT TD9635_LON TD9635_WIND TD9635_PRES TD9635_ROCI NEUMANN_LAT NEUMANN_LON NEUMANN_CLASS NEUMANN_WIND NEUMANN_PRES MLC_LAT MLC_LON MLC_CLASS MLC_WIND MLC_PRES USA_GUST BOM_GUST BOM_GUST_PER REUNION_GUST REUNION_GUST_PER USA_SEAHGT USA_SEARAD_NE USA_SEARAD_SE USA_SEARAD_SW USA_SEARAD_NW STORM_SPEED STORM_DIR
1938011N11131 1938 6 WP MM NOT_NAMED 1938-01-11 10:00:00 NR 11.2000 131.200 main 590 568 __________O___ -1 11.2000 131.200 7 6 273
1938011N11131 1938 6 WP MM NOT_NAMED 1938-01-11 12:00:00 NR 11.2115 131.001 main 568 535 __________P___ -1 11.2115 131.001 7 6 274
1938011N11131 1938 6 WP MM NOT_NAMED 1938-01-11 15:00:00 NR 11.2368 130.678 main 535 492 __________P___ -1 11.2368 130.678 7 7 276
1938011N11131 1938 6 WP MM NOT_NAMED 1938-01-11 18:00:00 NR 11.2833 130.289 main 492 438 __________P___ -1 11.2833 130.289 7 9 278
1938011N11131 1938 6 WP MM NOT_NAMED 1938-01-11 21:00:00 NR 11.3636 129.795 main 438 417 __________P___ -1 11.3636 129.795 7 10 280
1938011N11131 1938 6 WP MM NOT_NAMED 1938-01-11 22:00:00 NR 11.4000 129.600 main 417 375 __________O___ -1 11.4000 129.600 2 13 281
1938011N11131 1938 6 WP MM NOT_NAMED 1938-01-12 00:00:00 NR 11.4894 129.160 main 375 294 __________P___ -1 11.4894 129.160 2 14 283
1938011N11131 1938 6 WP MM NOT_NAMED 1938-01-12 03:00:00 NR 11.6670 128.400 main 294 220 __________P___ -1 11.6670 128.400 2 16 285
1938011N11131 1938 6 WP MM NOT_NAMED 1938-01-12 06:00:00 NR 11.8993 127.560 main 220 130 __________P___ -1 11.8993 127.560 2 18 287
1938011N11131 1938 6 WP MM NOT_NAMED 1938-01-12 09:00:00 NR 12.1896 126.689 main 130 98 __________P___ -1 12.1896 126.689 2 18 289
1938011N11131 1938 6 WP MM NOT_NAMED 1938-01-12 10:00:00 NR 12.3000 126.400 main 98 54 __________O___ -1 12.3000 126.400 2 19 293
1938011N11131 1938 6 WP MM NOT_NAMED 1938-01-12 12:00:00 NR 12.5538 125.812 main 55 31 __________P___ -1 12.5538 125.812 2 19 295
1938011N11131 1938 6 WP MM NOT_NAMED 1938-01-12 15:00:00 NR 12.9853 124.923 main 55 11 __________P___ -1 12.9853 124.923 2 19 298
1938011N11131 1938 6 WP MM NOT_NAMED 1938-01-12 18:00:00 NR 13.4383 124.073 main 15 0 __________P___ -1 13.4383 124.073 2 18 300
1938011N11131 1938 6 WP MM NOT_NAMED 1938-01-12 21:00:00 NR 13.8689 123.320 main 0 0 __________P___ -1 13.8689 123.320 2 17 301
1938011N11131 1938 6 WP MM NOT_NAMED 1938-01-12 22:00:00 NR 14.0000 123.100 main 10 0 __________O___ -1 14.0000 123.100 2 13 300
1938011N11131 1938 6 WP MM NOT_NAMED 1938-01-13 00:00:00 NR 14.2059 122.727 main 0 0 __________P___ -1 14.2059 122.727 2 11 301
1938011N11131 1938 6 WP MM NOT_NAMED 1938-01-13 03:00:00 NR 14.4777 122.276 main 35 21 __________P___ -1 14.4777 122.276 2 9 304
1938011N11131 1938 6 WP MM NOT_NAMED 1938-01-13 06:00:00 NR 14.7328 121.916 main 21 10 __________P___ -1 14.7328 121.916 2 8 309
1938011N11131 1938 6 WP MM NOT_NAMED 1938-01-13 09:00:00 NR 15.0019 121.602 main 10 10 __________P___ -1 15.0019 121.602 2 8 312
1938011N11131 1938 6 WP MM NOT_NAMED 1938-01-13 10:00:00 NR 15.1000 121.500 main 10 0 __________O___ -1 15.1000 121.500 2 9 316
1938011N11131 1938 6 WP MM NOT_NAMED 1938-01-13 12:00:00 NR 15.3133 121.293 main 0 0 __________P___ -1 15.3133 121.293 2 9 318
1938011N11131 1938 6 WP MM NOT_NAMED 1938-01-13 15:00:00 NR 15.6697 120.973 main 0 0 __________P___ -1 15.6697 120.973 2 10 320
1938011N11131 1938 6 WP MM NOT_NAMED 1938-01-13 18:00:00 NR 16.0576 120.645 main 0 0 __________P___ -1 16.0576 120.645 2 10 321
1938011N11131 1938 6 WP MM NOT_NAMED 1938-01-13 21:00:00 NR 16.4632 120.312 main 10 10 __________P___ -1 16.4632 120.312 2 10 322
1938011N11131 1938 6 WP MM NOT_NAMED 1938-01-13 22:00:00 NR 16.6000 120.200 main 10 __________O___ -1 16.6000 120.200 7 10 322

デジタル台風データ・検索

IBTrACS Databaseについて

本データベースは、米国NOAAが公開する1842年以降の世界の熱帯低気圧のベストトラックデータアーカイブInternational Best Track Archive for Climate Stewardship (IBTrACS)を、ウェブで閲覧しやすい形式に変換したものです。

最終更新日:2021-11-26